sensor_id;sensor_type;location;lat;lon;timestamp;P1;durP1;ratioP1;P2;durP2;ratioP2
61291;SDS011;47165;42.664;23.368;2023-04-25T00:00:15;1.20;;;0.70;;
61291;SDS011;47165;42.664;23.368;2023-04-25T00:02:41;2.22;;;1.30;;
61291;SDS011;47165;42.664;23.368;2023-04-25T00:05:07;1.42;;;0.98;;
61291;SDS011;47165;42.664;23.368;2023-04-25T00:07:33;1.63;;;1.23;;
61291;SDS011;47165;42.664;23.368;2023-04-25T00:09:59;1.23;;;0.93;;
61291;SDS011;47165;42.664;23.368;2023-04-25T00:12:25;2.22;;;1.08;;
61291;SDS011;47165;42.664;23.368;2023-04-25T00:14:53;5.18;;;1.00;;
61291;SDS011;47165;42.664;23.368;2023-04-25T00:17:21;1.33;;;0.90;;
61291;SDS011;47165;42.664;23.368;2023-04-25T00:19:49;1.98;;;1.10;;
61291;SDS011;47165;42.664;23.368;2023-04-25T00:22:15;2.15;;;1.02;;
61291;SDS011;47165;42.664;23.368;2023-04-25T00:24:41;1.52;;;0.93;;
61291;SDS011;47165;42.664;23.368;2023-04-25T00:27:07;1.75;;;0.95;;
61291;SDS011;47165;42.664;23.368;2023-04-25T00:29:32;1.58;;;1.25;;
61291;SDS011;47165;42.664;23.368;2023-04-25T00:31:58;2.60;;;1.20;;
61291;SDS011;47165;42.664;23.368;2023-04-25T00:34:23;2.38;;;1.23;;
61291;SDS011;47165;42.664;23.368;2023-04-25T00:36:49;1.55;;;0.88;;
61291;SDS011;47165;42.664;23.368;2023-04-25T00:39:14;1.67;;;0.75;;
61291;SDS011;47165;42.664;23.368;2023-04-25T00:41:40;1.67;;;1.33;;
61291;SDS011;47165;42.664;23.368;2023-04-25T00:44:05;1.83;;;0.98;;
61291;SDS011;47165;42.664;23.368;2023-04-25T00:46:33;1.55;;;1.13;;
61291;SDS011;47165;42.664;23.368;2023-04-25T00:49:00;2.05;;;1.17;;
61291;SDS011;47165;42.664;23.368;2023-04-25T00:51:26;2.38;;;1.00;;
61291;SDS011;47165;42.664;23.368;2023-04-25T00:53:51;1.42;;;1.25;;
61291;SDS011;47165;42.664;23.368;2023-04-25T00:56:17;2.38;;;0.93;;
61291;SDS011;47165;42.664;23.368;2023-04-25T00:58:43;4.55;;;1.27;;
61291;SDS011;47165;42.664;23.368;2023-04-25T01:01:10;4.43;;;1.45;;
61291;SDS011;47165;42.664;23.368;2023-04-25T01:03:37;2.13;;;0.80;;
61291;SDS011;47165;42.664;23.368;2023-04-25T01:06:07;0.85;;;0.75;;
61291;SDS011;47165;42.664;23.368;2023-04-25T01:08:34;1.50;;;0.88;;
61291;SDS011;47165;42.664;23.368;2023-04-25T01:11:00;2.20;;;1.45;;
61291;SDS011;47165;42.664;23.368;2023-04-25T01:13:26;1.75;;;1.15;;
61291;SDS011;47165;42.664;23.368;2023-04-25T01:15:52;2.78;;;0.95;;
61291;SDS011;47165;42.664;23.368;2023-04-25T01:18:18;2.47;;;1.13;;
61291;SDS011;47165;42.664;23.368;2023-04-25T01:20:45;1.05;;;0.47;;
61291;SDS011;47165;42.664;23.368;2023-04-25T01:23:12;1.63;;;0.55;;
61291;SDS011;47165;42.664;23.368;2023-04-25T01:25:38;1.73;;;0.95;;
61291;SDS011;47165;42.664;23.368;2023-04-25T01:28:05;1.48;;;0.65;;
61291;SDS011;47165;42.664;23.368;2023-04-25T01:30:30;1.35;;;1.08;;
61291;SDS011;47165;42.664;23.368;2023-04-25T01:32:56;2.13;;;0.70;;
61291;SDS011;47165;42.664;23.368;2023-04-25T01:35:22;1.17;;;0.85;;
61291;SDS011;47165;42.664;23.368;2023-04-25T01:37:49;2.33;;;1.05;;
61291;SDS011;47165;42.664;23.368;2023-04-25T01:40:15;1.90;;;0.95;;
61291;SDS011;47165;42.664;23.368;2023-04-25T01:42:44;1.95;;;0.93;;
61291;SDS011;47165;42.664;23.368;2023-04-25T01:45:10;1.23;;;0.73;;
61291;SDS011;47165;42.664;23.368;2023-04-25T01:47:36;2.22;;;1.10;;
61291;SDS011;47165;42.664;23.368;2023-04-25T01:50:05;1.63;;;0.95;;
61291;SDS011;47165;42.664;23.368;2023-04-25T01:52:31;1.52;;;1.17;;
61291;SDS011;47165;42.664;23.368;2023-04-25T01:54:57;1.48;;;1.02;;
61291;SDS011;47165;42.664;23.368;2023-04-25T01:57:24;1.50;;;0.93;;
61291;SDS011;47165;42.664;23.368;2023-04-25T01:59:50;2.47;;;1.13;;
61291;SDS011;47165;42.664;23.368;2023-04-25T02:02:16;1.48;;;0.93;;
61291;SDS011;47165;42.664;23.368;2023-04-25T02:04:41;1.52;;;1.00;;
61291;SDS011;47165;42.664;23.368;2023-04-25T02:07:07;1.23;;;0.77;;
61291;SDS011;47165;42.664;23.368;2023-04-25T02:09:32;2.38;;;1.08;;
61291;SDS011;47165;42.664;23.368;2023-04-25T02:11:57;1.55;;;1.02;;
61291;SDS011;47165;42.664;23.368;2023-04-25T02:14:23;3.20;;;1.27;;
61291;SDS011;47165;42.664;23.368;2023-04-25T02:16:48;3.58;;;2.03;;
61291;SDS011;47165;42.664;23.368;2023-04-25T02:19:14;3.03;;;1.67;;
61291;SDS011;47165;42.664;23.368;2023-04-25T02:21:39;1.67;;;0.88;;
61291;SDS011;47165;42.664;23.368;2023-04-25T02:24:05;2.15;;;0.95;;
61291;SDS011;47165;42.664;23.368;2023-04-25T02:26:30;2.72;;;0.90;;
61291;SDS011;47165;42.664;23.368;2023-04-25T02:28:56;1.60;;;0.77;;
61291;SDS011;47165;42.664;23.368;2023-04-25T02:31:22;2.58;;;1.13;;
61291;SDS011;47165;42.664;23.368;2023-04-25T02:33:48;1.42;;;1.17;;
61291;SDS011;47165;42.664;23.368;2023-04-25T02:36:13;1.70;;;0.82;;
61291;SDS011;47165;42.664;23.368;2023-04-25T02:38:39;2.47;;;1.40;;
61291;SDS011;47165;42.664;23.368;2023-04-25T02:41:05;2.22;;;1.17;;
61291;SDS011;47165;42.664;23.368;2023-04-25T02:43:30;2.30;;;1.30;;
61291;SDS011;47165;42.664;23.368;2023-04-25T02:45:56;3.42;;;1.20;;
61291;SDS011;47165;42.664;23.368;2023-04-25T02:48:21;3.70;;;1.65;;
61291;SDS011;47165;42.664;23.368;2023-04-25T02:50:47;3.55;;;1.63;;
61291;SDS011;47165;42.664;23.368;2023-04-25T02:53:12;2.15;;;1.13;;
61291;SDS011;47165;42.664;23.368;2023-04-25T02:55:38;4.38;;;1.73;;
61291;SDS011;47165;42.664;23.368;2023-04-25T02:58:04;2.15;;;1.25;;
61291;SDS011;47165;42.664;23.368;2023-04-25T03:00:30;2.83;;;1.45;;
61291;SDS011;47165;42.664;23.368;2023-04-25T03:02:55;1.77;;;1.20;;
61291;SDS011;47165;42.664;23.368;2023-04-25T03:05:21;1.20;;;0.93;;
61291;SDS011;47165;42.664;23.368;2023-04-25T03:07:46;3.13;;;1.55;;
61291;SDS011;47165;42.664;23.368;2023-04-25T03:10:11;3.53;;;1.38;;
61291;SDS011;47165;42.664;23.368;2023-04-25T03:12:37;5.70;;;1.08;;
61291;SDS011;47165;42.664;23.368;2023-04-25T03:15:02;2.30;;;1.25;;
61291;SDS011;47165;42.664;23.368;2023-04-25T03:17:28;1.45;;;0.88;;
61291;SDS011;47165;42.664;23.368;2023-04-25T03:19:54;2.08;;;1.15;;
61291;SDS011;47165;42.664;23.368;2023-04-25T03:22:20;2.80;;;1.40;;
61291;SDS011;47165;42.664;23.368;2023-04-25T03:24:45;2.53;;;1.35;;
61291;SDS011;47165;42.664;23.368;2023-04-25T03:27:11;2.15;;;1.25;;
61291;SDS011;47165;42.664;23.368;2023-04-25T03:29:37;1.98;;;1.35;;
61291;SDS011;47165;42.664;23.368;2023-04-25T03:32:02;2.05;;;1.27;;
61291;SDS011;47165;42.664;23.368;2023-04-25T03:34:28;4.10;;;1.77;;
61291;SDS011;47165;42.664;23.368;2023-04-25T03:36:53;2.80;;;1.70;;
61291;SDS011;47165;42.664;23.368;2023-04-25T03:39:19;3.75;;;2.17;;
61291;SDS011;47165;42.664;23.368;2023-04-25T03:41:44;3.10;;;1.77;;
61291;SDS011;47165;42.664;23.368;2023-04-25T03:44:10;3.78;;;2.00;;
61291;SDS011;47165;42.664;23.368;2023-04-25T03:46:35;2.45;;;1.48;;
61291;SDS011;47165;42.664;23.368;2023-04-25T03:49:01;1.40;;;1.10;;
61291;SDS011;47165;42.664;23.368;2023-04-25T03:51:26;4.50;;;2.63;;
61291;SDS011;47165;42.664;23.368;2023-04-25T03:53:52;6.13;;;3.83;;
61291;SDS011;47165;42.664;23.368;2023-04-25T03:56:17;3.10;;;1.73;;
61291;SDS011;47165;42.664;23.368;2023-04-25T03:58:43;3.67;;;1.40;;
61291;SDS011;47165;42.664;23.368;2023-04-25T04:01:08;5.07;;;2.65;;
61291;SDS011;47165;42.664;23.368;2023-04-25T04:03:34;7.90;;;3.13;;
61291;SDS011;47165;42.664;23.368;2023-04-25T04:06:01;2.67;;;1.67;;
61291;SDS011;47165;42.664;23.368;2023-04-25T04:08:28;3.28;;;1.58;;
61291;SDS011;47165;42.664;23.368;2023-04-25T04:10:54;3.10;;;1.55;;
61291;SDS011;47165;42.664;23.368;2023-04-25T04:13:20;2.65;;;1.42;;
61291;SDS011;47165;42.664;23.368;2023-04-25T04:15:45;2.05;;;1.35;;
61291;SDS011;47165;42.664;23.368;2023-04-25T04:18:11;5.10;;;2.15;;
61291;SDS011;47165;42.664;23.368;2023-04-25T04:20:36;2.03;;;1.33;;
61291;SDS011;47165;42.664;23.368;2023-04-25T04:23:02;3.78;;;2.08;;
61291;SDS011;47165;42.664;23.368;2023-04-25T04:25:27;2.72;;;1.63;;
61291;SDS011;47165;42.664;23.368;2023-04-25T04:27:53;3.53;;;2.20;;
61291;SDS011;47165;42.664;23.368;2023-04-25T04:30:21;5.85;;;2.78;;
61291;SDS011;47165;42.664;23.368;2023-04-25T04:32:49;4.35;;;1.83;;
61291;SDS011;47165;42.664;23.368;2023-04-25T04:35:15;4.22;;;2.28;;
61291;SDS011;47165;42.664;23.368;2023-04-25T04:37:40;4.57;;;2.50;;
61291;SDS011;47165;42.664;23.368;2023-04-25T04:40:06;3.42;;;1.67;;
61291;SDS011;47165;42.664;23.368;2023-04-25T04:42:32;3.20;;;1.55;;
61291;SDS011;47165;42.664;23.368;2023-04-25T04:44:58;3.33;;;1.70;;
61291;SDS011;47165;42.664;23.368;2023-04-25T04:47:23;3.45;;;1.42;;
61291;SDS011;47165;42.664;23.368;2023-04-25T04:49:50;2.78;;;1.65;;
61291;SDS011;47165;42.664;23.368;2023-04-25T04:52:16;3.85;;;1.95;;
61291;SDS011;47165;42.664;23.368;2023-04-25T04:54:41;3.95;;;1.88;;
61291;SDS011;47165;42.664;23.368;2023-04-25T04:57:07;3.83;;;1.80;;
61291;SDS011;47165;42.664;23.368;2023-04-25T04:59:32;3.92;;;2.45;;
61291;SDS011;47165;42.664;23.368;2023-04-25T05:01:58;5.13;;;2.22;;
61291;SDS011;47165;42.664;23.368;2023-04-25T05:04:23;4.07;;;1.73;;
61291;SDS011;47165;42.664;23.368;2023-04-25T05:06:48;3.38;;;2.08;;
61291;SDS011;47165;42.664;23.368;2023-04-25T05:09:14;2.83;;;1.83;;
61291;SDS011;47165;42.664;23.368;2023-04-25T05:11:40;5.88;;;2.83;;
61291;SDS011;47165;42.664;23.368;2023-04-25T05:14:05;3.95;;;2.15;;
61291;SDS011;47165;42.664;23.368;2023-04-25T05:16:31;5.13;;;2.45;;
61291;SDS011;47165;42.664;23.368;2023-04-25T05:18:56;3.47;;;2.40;;
61291;SDS011;47165;42.664;23.368;2023-04-25T05:21:21;6.20;;;3.70;;
61291;SDS011;47165;42.664;23.368;2023-04-25T05:23:47;4.53;;;2.30;;
61291;SDS011;47165;42.664;23.368;2023-04-25T05:26:12;4.15;;;2.08;;
61291;SDS011;47165;42.664;23.368;2023-04-25T05:28:41;3.85;;;2.28;;
61291;SDS011;47165;42.664;23.368;2023-04-25T05:31:07;3.28;;;2.05;;
61291;SDS011;47165;42.664;23.368;2023-04-25T05:33:34;4.25;;;2.13;;
61291;SDS011;47165;42.664;23.368;2023-04-25T05:36:00;5.45;;;3.33;;
61291;SDS011;47165;42.664;23.368;2023-04-25T05:38:25;6.15;;;2.13;;
61291;SDS011;47165;42.664;23.368;2023-04-25T05:40:51;4.90;;;2.65;;
61291;SDS011;47165;42.664;23.368;2023-04-25T05:43:16;5.63;;;3.08;;
61291;SDS011;47165;42.664;23.368;2023-04-25T05:45:42;4.35;;;2.60;;
61291;SDS011;47165;42.664;23.368;2023-04-25T05:48:07;4.97;;;2.45;;
61291;SDS011;47165;42.664;23.368;2023-04-25T05:50:33;3.60;;;2.20;;
61291;SDS011;47165;42.664;23.368;2023-04-25T05:52:58;2.70;;;1.67;;
61291;SDS011;47165;42.664;23.368;2023-04-25T05:55:23;3.42;;;1.73;;
61291;SDS011;47165;42.664;23.368;2023-04-25T05:57:49;4.57;;;2.28;;
61291;SDS011;47165;42.664;23.368;2023-04-25T06:00:15;4.00;;;2.00;;
61291;SDS011;47165;42.664;23.368;2023-04-25T06:02:41;5.07;;;2.28;;
61291;SDS011;47165;42.664;23.368;2023-04-25T06:05:07;4.35;;;2.83;;
61291;SDS011;47165;42.664;23.368;2023-04-25T06:07:33;3.75;;;2.38;;
61291;SDS011;47165;42.664;23.368;2023-04-25T06:09:58;5.07;;;2.55;;
61291;SDS011;47165;42.664;23.368;2023-04-25T06:12:25;4.32;;;2.10;;
61291;SDS011;47165;42.664;23.368;2023-04-25T06:14:51;3.47;;;2.30;;
61291;SDS011;47165;42.664;23.368;2023-04-25T06:17:16;4.80;;;2.08;;
61291;SDS011;47165;42.664;23.368;2023-04-25T06:19:42;4.95;;;2.53;;
61291;SDS011;47165;42.664;23.368;2023-04-25T06:22:07;4.22;;;1.83;;
61291;SDS011;47165;42.664;23.368;2023-04-25T06:24:33;5.05;;;2.00;;
61291;SDS011;47165;42.664;23.368;2023-04-25T06:26:59;2.65;;;1.58;;
61291;SDS011;47165;42.664;23.368;2023-04-25T06:29:25;5.22;;;2.05;;
61291;SDS011;47165;42.664;23.368;2023-04-25T06:31:50;5.35;;;2.50;;
61291;SDS011;47165;42.664;23.368;2023-04-25T06:34:16;4.53;;;2.25;;
61291;SDS011;47165;42.664;23.368;2023-04-25T06:36:42;4.63;;;1.60;;
61291;SDS011;47165;42.664;23.368;2023-04-25T06:39:09;4.68;;;2.22;;
61291;SDS011;47165;42.664;23.368;2023-04-25T06:41:34;2.78;;;1.83;;
61291;SDS011;47165;42.664;23.368;2023-04-25T06:44:00;5.15;;;1.92;;
61291;SDS011;47165;42.664;23.368;2023-04-25T06:46:26;2.28;;;1.65;;
61291;SDS011;47165;42.664;23.368;2023-04-25T06:48:51;3.70;;;1.92;;
61291;SDS011;47165;42.664;23.368;2023-04-25T06:51:17;3.60;;;2.22;;
61291;SDS011;47165;42.664;23.368;2023-04-25T06:53:42;5.78;;;3.55;;
61291;SDS011;47165;42.664;23.368;2023-04-25T06:56:08;8.43;;;3.13;;
61291;SDS011;47165;42.664;23.368;2023-04-25T06:58:33;8.77;;;3.42;;
61291;SDS011;47165;42.664;23.368;2023-04-25T07:00:59;3.85;;;2.30;;
61291;SDS011;47165;42.664;23.368;2023-04-25T07:03:24;5.10;;;1.92;;
61291;SDS011;47165;42.664;23.368;2023-04-25T07:05:50;3.33;;;2.08;;
61291;SDS011;47165;42.664;23.368;2023-04-25T07:08:15;3.20;;;2.00;;
61291;SDS011;47165;42.664;23.368;2023-04-25T07:10:41;2.97;;;1.95;;
61291;SDS011;47165;42.664;23.368;2023-04-25T07:13:06;2.42;;;1.42;;
61291;SDS011;47165;42.664;23.368;2023-04-25T07:15:32;3.88;;;2.35;;
61291;SDS011;47165;42.664;23.368;2023-04-25T07:17:57;4.20;;;1.88;;
61291;SDS011;47165;42.664;23.368;2023-04-25T07:20:23;4.95;;;2.15;;
61291;SDS011;47165;42.664;23.368;2023-04-25T07:22:48;2.95;;;1.75;;
61291;SDS011;47165;42.664;23.368;2023-04-25T07:25:15;4.65;;;2.97;;
61291;SDS011;47165;42.664;23.368;2023-04-25T07:27:41;2.90;;;1.63;;
61291;SDS011;47165;42.664;23.368;2023-04-25T07:30:08;2.53;;;2.00;;
61291;SDS011;47165;42.664;23.368;2023-04-25T07:32:34;3.97;;;2.13;;
61291;SDS011;47165;42.664;23.368;2023-04-25T07:34:59;6.47;;;2.10;;
61291;SDS011;47165;42.664;23.368;2023-04-25T07:37:26;2.88;;;1.80;;
61291;SDS011;47165;42.664;23.368;2023-04-25T07:39:52;4.03;;;1.70;;
61291;SDS011;47165;42.664;23.368;2023-04-25T07:42:17;3.20;;;1.77;;
61291;SDS011;47165;42.664;23.368;2023-04-25T07:44:42;3.60;;;2.05;;
61291;SDS011;47165;42.664;23.368;2023-04-25T07:47:08;3.45;;;1.73;;
61291;SDS011;47165;42.664;23.368;2023-04-25T07:49:35;8.65;;;3.70;;
61291;SDS011;47165;42.664;23.368;2023-04-25T07:52:01;14.05;;;7.10;;
61291;SDS011;47165;42.664;23.368;2023-04-25T07:54:27;7.47;;;4.03;;
61291;SDS011;47165;42.664;23.368;2023-04-25T07:56:53;2.75;;;2.03;;
61291;SDS011;47165;42.664;23.368;2023-04-25T07:59:18;3.30;;;2.35;;
61291;SDS011;47165;42.664;23.368;2023-04-25T08:01:44;3.60;;;2.33;;
61291;SDS011;47165;42.664;23.368;2023-04-25T08:04:09;3.40;;;2.08;;
61291;SDS011;47165;42.664;23.368;2023-04-25T08:06:35;4.28;;;2.08;;
61291;SDS011;47165;42.664;23.368;2023-04-25T08:09:01;4.28;;;2.35;;
61291;SDS011;47165;42.664;23.368;2023-04-25T08:11:26;7.72;;;3.35;;
61291;SDS011;47165;42.664;23.368;2023-04-25T08:13:52;2.40;;;1.63;;
61291;SDS011;47165;42.664;23.368;2023-04-25T08:16:17;3.72;;;2.50;;
61291;SDS011;47165;42.664;23.368;2023-04-25T08:18:42;4.30;;;2.65;;
61291;SDS011;47165;42.664;23.368;2023-04-25T08:21:08;5.25;;;2.30;;
61291;SDS011;47165;42.664;23.368;2023-04-25T08:23:36;3.55;;;2.10;;
61291;SDS011;47165;42.664;23.368;2023-04-25T08:26:02;5.53;;;2.90;;
61291;SDS011;47165;42.664;23.368;2023-04-25T08:28:27;2.67;;;1.92;;
61291;SDS011;47165;42.664;23.368;2023-04-25T08:30:53;3.28;;;2.00;;
61291;SDS011;47165;42.664;23.368;2023-04-25T08:33:19;2.22;;;1.83;;
61291;SDS011;47165;42.664;23.368;2023-04-25T08:35:44;3.40;;;2.78;;
61291;SDS011;47165;42.664;23.368;2023-04-25T08:38:10;3.08;;;1.85;;
61291;SDS011;47165;42.664;23.368;2023-04-25T08:40:37;3.67;;;1.40;;
61291;SDS011;47165;42.664;23.368;2023-04-25T08:43:03;2.58;;;1.67;;
61291;SDS011;47165;42.664;23.368;2023-04-25T08:45:34;2.45;;;1.70;;
61291;SDS011;47165;42.664;23.368;2023-04-25T08:48:00;2.95;;;1.80;;
61291;SDS011;47165;42.664;23.368;2023-04-25T08:50:27;2.28;;;1.77;;
61291;SDS011;47165;42.664;23.368;2023-04-25T08:52:53;2.20;;;1.50;;
61291;SDS011;47165;42.664;23.368;2023-04-25T08:55:19;3.40;;;2.10;;
61291;SDS011;47165;42.664;23.368;2023-04-25T08:57:46;4.97;;;2.88;;
61291;SDS011;47165;42.664;23.368;2023-04-25T09:00:12;6.88;;;3.55;;
61291;SDS011;47165;42.664;23.368;2023-04-25T09:02:38;7.05;;;4.07;;
61291;SDS011;47165;42.664;23.368;2023-04-25T09:05:04;6.57;;;2.75;;
61291;SDS011;47165;42.664;23.368;2023-04-25T09:07:32;4.20;;;3.05;;
61291;SDS011;47165;42.664;23.368;2023-04-25T09:09:58;6.50;;;4.50;;
61291;SDS011;47165;42.664;23.368;2023-04-25T09:12:26;3.80;;;2.20;;
61291;SDS011;47165;42.664;23.368;2023-04-25T09:15:03;8.52;;;3.67;;
61291;SDS011;47165;42.664;23.368;2023-04-25T09:17:30;6.10;;;2.45;;
61291;SDS011;47165;42.664;23.368;2023-04-25T09:20:05;3.67;;;2.53;;
61291;SDS011;47165;42.664;23.368;2023-04-25T09:22:34;5.88;;;3.42;;
61291;SDS011;47165;42.664;23.368;2023-04-25T09:25:02;5.97;;;2.85;;
61291;SDS011;47165;42.664;23.368;2023-04-25T09:27:28;5.03;;;3.88;;
61291;SDS011;47165;42.664;23.368;2023-04-25T09:29:57;5.25;;;3.20;;
61291;SDS011;47165;42.664;23.368;2023-04-25T09:32:26;6.30;;;3.78;;
61291;SDS011;47165;42.664;23.368;2023-04-25T09:34:53;6.65;;;4.00;;
61291;SDS011;47165;42.664;23.368;2023-04-25T09:37:20;6.50;;;3.10;;
61291;SDS011;47165;42.664;23.368;2023-04-25T09:39:48;4.28;;;3.03;;
61291;SDS011;47165;42.664;23.368;2023-04-25T09:42:15;3.83;;;2.67;;
61291;SDS011;47165;42.664;23.368;2023-04-25T09:44:45;6.28;;;2.90;;
61291;SDS011;47165;42.664;23.368;2023-04-25T09:47:12;3.65;;;2.58;;
61291;SDS011;47165;42.664;23.368;2023-04-25T09:49:39;7.07;;;3.35;;
61291;SDS011;47165;42.664;23.368;2023-04-25T09:52:06;6.88;;;3.67;;
61291;SDS011;47165;42.664;23.368;2023-04-25T09:54:32;4.80;;;2.50;;
61291;SDS011;47165;42.664;23.368;2023-04-25T09:56:57;3.88;;;2.72;;
61291;SDS011;47165;42.664;23.368;2023-04-25T09:59:36;3.20;;;2.42;;
61291;SDS011;47165;42.664;23.368;2023-04-25T10:02:04;3.45;;;2.50;;
61291;SDS011;47165;42.664;23.368;2023-04-25T10:04:34;4.95;;;2.67;;
61291;SDS011;47165;42.664;23.368;2023-04-25T10:07:01;4.07;;;2.88;;
61291;SDS011;47165;42.664;23.368;2023-04-25T10:09:30;3.17;;;2.47;;
61291;SDS011;47165;42.664;23.368;2023-04-25T10:11:58;2.50;;;2.22;;
61291;SDS011;47165;42.664;23.368;2023-04-25T10:14:25;2.55;;;1.88;;
61291;SDS011;47165;42.664;23.368;2023-04-25T10:16:51;3.53;;;2.15;;
61291;SDS011;47165;42.664;23.368;2023-04-25T10:19:20;3.47;;;2.53;;
61291;SDS011;47165;42.664;23.368;2023-04-25T10:21:51;2.47;;;2.05;;
61291;SDS011;47165;42.664;23.368;2023-04-25T10:24:20;4.67;;;2.50;;
61291;SDS011;47165;42.664;23.368;2023-04-25T10:26:47;2.97;;;2.08;;
61291;SDS011;47165;42.664;23.368;2023-04-25T10:29:15;3.45;;;2.30;;
61291;SDS011;47165;42.664;23.368;2023-04-25T10:34:13;1.88;;;1.27;;
61291;SDS011;47165;42.664;23.368;2023-04-25T10:36:38;6.13;;;2.08;;
61291;SDS011;47165;42.664;23.368;2023-04-25T10:39:05;2.05;;;1.40;;
61291;SDS011;47165;42.664;23.368;2023-04-25T10:41:45;4.32;;;1.52;;
61291;SDS011;47165;42.664;23.368;2023-04-25T10:44:12;1.67;;;1.23;;
61291;SDS011;47165;42.664;23.368;2023-04-25T10:46:39;3.45;;;1.80;;
61291;SDS011;47165;42.664;23.368;2023-04-25T10:49:04;2.80;;;1.50;;
61291;SDS011;47165;42.664;23.368;2023-04-25T10:51:33;3.85;;;1.83;;
61291;SDS011;47165;42.664;23.368;2023-04-25T10:56:32;4.55;;;2.33;;
61291;SDS011;47165;42.664;23.368;2023-04-25T10:59:04;2.45;;;1.42;;
61291;SDS011;47165;42.664;23.368;2023-04-25T11:01:35;4.68;;;1.15;;
61291;SDS011;47165;42.664;23.368;2023-04-25T11:04:34;0.75;;;0.50;;
61291;SDS011;47165;42.664;23.368;2023-04-25T11:09:32;1.63;;;0.88;;
61291;SDS011;47165;42.664;23.368;2023-04-25T11:11:59;2.20;;;0.80;;
61291;SDS011;47165;42.664;23.368;2023-04-25T11:14:25;1.52;;;0.80;;
61291;SDS011;47165;42.664;23.368;2023-04-25T11:16:55;1.10;;;0.77;;
61291;SDS011;47165;42.664;23.368;2023-04-25T11:19:22;1.38;;;0.90;;
61291;SDS011;47165;42.664;23.368;2023-04-25T11:21:47;1.92;;;1.50;;
61291;SDS011;47165;42.664;23.368;2023-04-25T11:24:13;2.20;;;1.30;;
61291;SDS011;47165;42.664;23.368;2023-04-25T11:26:41;1.90;;;1.38;;
61291;SDS011;47165;42.664;23.368;2023-04-25T11:29:07;5.13;;;1.15;;
61291;SDS011;47165;42.664;23.368;2023-04-25T11:31:32;1.27;;;1.15;;
61291;SDS011;47165;42.664;23.368;2023-04-25T11:33:57;2.85;;;1.05;;
61291;SDS011;47165;42.664;23.368;2023-04-25T11:36:23;1.30;;;1.08;;
61291;SDS011;47165;42.664;23.368;2023-04-25T11:38:51;1.02;;;0.82;;
61291;SDS011;47165;42.664;23.368;2023-04-25T11:41:17;2.60;;;1.00;;
61291;SDS011;47165;42.664;23.368;2023-04-25T11:43:43;1.08;;;0.93;;
61291;SDS011;47165;42.664;23.368;2023-04-25T11:46:09;0.98;;;0.82;;
61291;SDS011;47165;42.664;23.368;2023-04-25T11:48:40;1.30;;;0.80;;
61291;SDS011;47165;42.664;23.368;2023-04-25T11:51:07;3.92;;;1.42;;
61291;SDS011;47165;42.664;23.368;2023-04-25T11:53:32;2.25;;;1.55;;
61291;SDS011;47165;42.664;23.368;2023-04-25T11:55:58;4.03;;;1.27;;
61291;SDS011;47165;42.664;23.368;2023-04-25T11:58:23;1.08;;;0.65;;
61291;SDS011;47165;42.664;23.368;2023-04-25T12:00:50;0.90;;;0.40;;
61291;SDS011;47165;42.664;23.368;2023-04-25T12:03:15;0.85;;;0.50;;
61291;SDS011;47165;42.664;23.368;2023-04-25T12:05:43;0.80;;;0.68;;
61291;SDS011;47165;42.664;23.368;2023-04-25T12:08:10;1.10;;;0.60;;
61291;SDS011;47165;42.664;23.368;2023-04-25T12:10:40;1.88;;;0.43;;
61291;SDS011;47165;42.664;23.368;2023-04-25T12:13:20;1.85;;;0.60;;
61291;SDS011;47165;42.664;23.368;2023-04-25T12:15:50;1.85;;;0.60;;
61291;SDS011;47165;42.664;23.368;2023-04-25T12:18:18;0.70;;;0.40;;
61291;SDS011;47165;42.664;23.368;2023-04-25T12:20:45;1.80;;;0.65;;
61291;SDS011;47165;42.664;23.368;2023-04-25T12:23:10;0.75;;;0.32;;
61291;SDS011;47165;42.664;23.368;2023-04-25T12:28:10;1.08;;;0.50;;
61291;SDS011;47165;42.664;23.368;2023-04-25T12:30:54;0.68;;;0.43;;
61291;SDS011;47165;42.664;23.368;2023-04-25T12:33:30;0.57;;;0.40;;
61291;SDS011;47165;42.664;23.368;2023-04-25T12:35:57;0.30;;;0.30;;
61291;SDS011;47165;42.664;23.368;2023-04-25T12:38:35;0.77;;;0.45;;
61291;SDS011;47165;42.664;23.368;2023-04-25T12:41:02;0.93;;;0.80;;
61291;SDS011;47165;42.664;23.368;2023-04-25T12:43:27;1.10;;;0.68;;
61291;SDS011;47165;42.664;23.368;2023-04-25T12:45:54;2.30;;;0.80;;
61291;SDS011;47165;42.664;23.368;2023-04-25T12:48:20;2.00;;;0.57;;
61291;SDS011;47165;42.664;23.368;2023-04-25T12:50:46;1.27;;;0.85;;
61291;SDS011;47165;42.664;23.368;2023-04-25T12:53:16;2.25;;;0.80;;
61291;SDS011;47165;42.664;23.368;2023-04-25T12:55:41;4.03;;;0.65;;
61291;SDS011;47165;42.664;23.368;2023-04-25T12:58:07;1.08;;;0.50;;
61291;SDS011;47165;42.664;23.368;2023-04-25T13:00:32;1.52;;;0.80;;
61291;SDS011;47165;42.664;23.368;2023-04-25T13:02:58;2.42;;;0.65;;
61291;SDS011;47165;42.664;23.368;2023-04-25T13:05:24;1.02;;;0.52;;
61291;SDS011;47165;42.664;23.368;2023-04-25T13:07:50;0.88;;;0.65;;
61291;SDS011;47165;42.664;23.368;2023-04-25T13:10:16;0.20;;;0.20;;
61291;SDS011;47165;42.664;23.368;2023-04-25T13:12:42;0.30;;;0.30;;
61291;SDS011;47165;42.664;23.368;2023-04-25T13:15:08;0.95;;;0.60;;
61291;SDS011;47165;42.664;23.368;2023-04-25T13:17:36;1.05;;;0.75;;
61291;SDS011;47165;42.664;23.368;2023-04-25T13:20:02;0.45;;;0.38;;
61291;SDS011;47165;42.664;23.368;2023-04-25T13:22:29;0.60;;;0.35;;
61291;SDS011;47165;42.664;23.368;2023-04-25T13:24:55;0.47;;;0.47;;
61291;SDS011;47165;42.664;23.368;2023-04-25T13:27:20;0.73;;;0.50;;
61291;SDS011;47165;42.664;23.368;2023-04-25T13:29:45;1.75;;;1.02;;
61291;SDS011;47165;42.664;23.368;2023-04-25T13:32:11;0.75;;;0.60;;
61291;SDS011;47165;42.664;23.368;2023-04-25T13:34:36;2.80;;;1.10;;
61291;SDS011;47165;42.664;23.368;2023-04-25T13:37:02;0.95;;;0.77;;
61291;SDS011;47165;42.664;23.368;2023-04-25T13:39:27;3.17;;;1.73;;
61291;SDS011;47165;42.664;23.368;2023-04-25T13:41:52;1.35;;;1.13;;
61291;SDS011;47165;42.664;23.368;2023-04-25T13:44:18;1.67;;;1.13;;
61291;SDS011;47165;42.664;23.368;2023-04-25T13:46:43;1.27;;;0.85;;
61291;SDS011;47165;42.664;23.368;2023-04-25T13:49:09;1.45;;;1.05;;
61291;SDS011;47165;42.664;23.368;2023-04-25T13:51:34;0.63;;;0.43;;
61291;SDS011;47165;42.664;23.368;2023-04-25T13:54:00;2.78;;;1.35;;
61291;SDS011;47165;42.664;23.368;2023-04-25T13:56:25;1.13;;;0.73;;
61291;SDS011;47165;42.664;23.368;2023-04-25T13:58:51;3.85;;;0.73;;
61291;SDS011;47165;42.664;23.368;2023-04-25T14:01:16;2.17;;;0.68;;
61291;SDS011;47165;42.664;23.368;2023-04-25T14:03:42;1.17;;;0.98;;
61291;SDS011;47165;42.664;23.368;2023-04-25T14:06:07;2.22;;;1.02;;
61291;SDS011;47165;42.664;23.368;2023-04-25T14:08:33;1.17;;;0.90;;
61291;SDS011;47165;42.664;23.368;2023-04-25T14:10:59;1.55;;;0.85;;
61291;SDS011;47165;42.664;23.368;2023-04-25T14:13:25;0.93;;;0.60;;
61291;SDS011;47165;42.664;23.368;2023-04-25T14:15:51;0.55;;;0.50;;
61291;SDS011;47165;42.664;23.368;2023-04-25T14:18:16;0.43;;;0.43;;
61291;SDS011;47165;42.664;23.368;2023-04-25T14:20:42;1.85;;;0.50;;
61291;SDS011;47165;42.664;23.368;2023-04-25T14:23:07;1.10;;;0.57;;
61291;SDS011;47165;42.664;23.368;2023-04-25T14:25:33;0.95;;;0.60;;
61291;SDS011;47165;42.664;23.368;2023-04-25T14:28:00;1.63;;;0.70;;
61291;SDS011;47165;42.664;23.368;2023-04-25T14:30:26;1.35;;;0.60;;
61291;SDS011;47165;42.664;23.368;2023-04-25T14:32:51;0.47;;;0.47;;
61291;SDS011;47165;42.664;23.368;2023-04-25T14:35:16;0.60;;;0.57;;
61291;SDS011;47165;42.664;23.368;2023-04-25T14:37:42;0.45;;;0.30;;